createdAt,value
2018-12-21T00:02:30.428Z,2.07
2018-12-21T00:05:01.353Z,1.90
2018-12-21T00:07:32.186Z,1.30
2018-12-21T00:10:04.819Z,1.80
2018-12-21T00:12:35.970Z,1.60
2018-12-21T00:15:08.541Z,1.73
2018-12-21T00:17:39.458Z,1.90
2018-12-21T00:20:12.078Z,1.80
2018-12-21T00:22:43.045Z,1.70
2018-12-21T00:25:13.926Z,1.30
2018-12-21T00:27:44.764Z,1.80
2018-12-21T00:30:19.826Z,1.47
2018-12-21T00:32:56.998Z,1.47
2018-12-21T00:35:32.999Z,2.60
2018-12-21T00:38:09.085Z,1.27
2018-12-21T00:40:45.032Z,1.40
2018-12-21T00:43:20.021Z,1.93
2018-12-21T00:45:56.924Z,1.70
2018-12-21T00:48:28.329Z,1.53
2018-12-21T00:50:59.134Z,1.50
2018-12-21T00:53:29.803Z,1.87
2018-12-21T00:56:01.554Z,1.20
2018-12-21T00:58:32.509Z,1.17
2018-12-21T01:01:04.668Z,1.40
2018-12-21T01:03:35.925Z,1.63
2018-12-21T01:06:06.824Z,1.80
2018-12-21T01:08:38.666Z,1.83
2018-12-21T01:11:10.232Z,1.23
2018-12-21T01:13:41.206Z,1.30
2018-12-21T01:16:12.232Z,1.93
2018-12-21T01:18:44.437Z,1.40
2018-12-21T01:21:15.732Z,1.23
2018-12-21T01:23:46.789Z,2.00
2018-12-21T01:26:17.533Z,1.70
2018-12-21T01:28:48.368Z,1.90
2018-12-21T01:31:19.129Z,1.40
2018-12-21T01:33:50.229Z,2.00
2018-12-21T01:36:20.994Z,1.73
2018-12-21T01:38:52.098Z,1.47
2018-12-21T01:41:22.985Z,1.50
2018-12-21T01:43:53.893Z,1.60
2018-12-21T01:46:24.722Z,1.23
2018-12-21T01:48:55.581Z,1.63
2018-12-21T01:51:26.322Z,1.40
2018-12-21T01:53:57.174Z,1.93
2018-12-21T01:56:28.164Z,1.33
2018-12-21T01:58:58.939Z,1.30
2018-12-21T02:01:29.826Z,1.20
2018-12-21T02:04:01.128Z,1.20
2018-12-21T02:06:32.002Z,1.60
2018-12-21T02:09:03.869Z,1.67
2018-12-21T02:11:34.792Z,2.10
2018-12-21T02:14:05.970Z,1.50
2018-12-21T02:16:36.811Z,1.47
2018-12-21T02:19:07.587Z,1.63
2018-12-21T02:21:38.542Z,1.50
2018-12-21T02:24:09.794Z,1.60
2018-12-21T02:26:40.919Z,1.63
2018-12-21T02:29:11.738Z,1.50
2018-12-21T02:31:42.751Z,1.30
2018-12-21T02:34:13.869Z,1.33
2018-12-21T02:36:44.516Z,1.30
2018-12-21T02:39:16.886Z,1.17
2018-12-21T02:41:47.799Z,1.67
2018-12-21T02:44:18.695Z,1.40
2018-12-21T02:46:49.859Z,1.30
2018-12-21T02:49:20.835Z,1.53
2018-12-21T02:51:52.080Z,2.00
2018-12-21T02:54:22.837Z,1.40
2018-12-21T02:56:53.652Z,1.50
2018-12-21T02:59:24.694Z,1.40
2018-12-21T03:01:55.708Z,1.60
2018-12-21T03:04:26.359Z,1.10
2018-12-21T03:06:57.576Z,1.43
2018-12-21T03:09:28.282Z,1.10
2018-12-21T03:11:58.999Z,1.60
2018-12-21T03:14:29.833Z,1.50
2018-12-21T03:17:00.593Z,1.30
2018-12-21T03:19:31.285Z,1.10
2018-12-21T03:22:02.021Z,1.00
2018-12-21T03:24:32.708Z,1.53
2018-12-21T03:27:03.957Z,1.60
2018-12-21T03:29:35.495Z,1.33
2018-12-21T03:32:06.201Z,1.53
2018-12-21T03:34:36.981Z,1.50
2018-12-21T03:37:08.031Z,1.60
2018-12-21T03:39:38.841Z,1.20
2018-12-21T03:42:10.126Z,1.73
2018-12-21T03:44:41.201Z,1.23
2018-12-21T03:47:11.806Z,1.50
2018-12-21T03:49:42.653Z,1.67
2018-12-21T03:52:13.584Z,1.40
2018-12-21T03:54:44.671Z,1.30
2018-12-21T03:57:15.565Z,1.70
2018-12-21T03:59:46.430Z,1.23
2018-12-21T04:02:17.347Z,1.33
2018-12-21T04:04:48.015Z,1.20
2018-12-21T04:07:18.898Z,1.30
2018-12-21T04:09:49.847Z,1.47
2018-12-21T04:12:20.524Z,1.80
2018-12-21T04:14:51.408Z,1.33
2018-12-21T04:17:22.099Z,0.90
2018-12-21T04:19:53.206Z,1.03
2018-12-21T04:22:33.761Z,1.47
2018-12-21T04:24:56.871Z,1.40
2018-12-21T04:27:28.004Z,1.10
2018-12-21T04:29:58.657Z,1.20
2018-12-21T04:32:29.499Z,1.30
2018-12-21T04:35:00.599Z,1.40
2018-12-21T04:37:31.260Z,1.40
2018-12-21T04:40:02.022Z,1.60
2018-12-21T04:42:32.951Z,1.13
2018-12-21T04:45:04.271Z,1.30
2018-12-21T04:47:35.976Z,1.40
2018-12-21T04:50:09.406Z,1.70
2018-12-21T04:52:43.346Z,1.30
2018-12-21T04:55:13.996Z,1.07
2018-12-21T04:57:45.626Z,1.13
2018-12-21T05:00:16.709Z,1.17
2018-12-21T05:02:47.455Z,1.20
2018-12-21T05:05:18.160Z,1.43
2018-12-21T05:07:49.062Z,1.17
2018-12-21T05:10:19.751Z,1.20
2018-12-21T05:12:50.476Z,1.33
2018-12-21T05:15:21.523Z,1.93
2018-12-21T05:17:52.634Z,1.17
2018-12-21T05:20:23.590Z,1.33
2018-12-21T05:22:54.360Z,1.33
2018-12-21T05:25:25.046Z,1.00
2018-12-21T05:27:57.291Z,1.30
2018-12-21T05:30:28.007Z,1.20
2018-12-21T05:32:58.938Z,1.50
2018-12-21T05:35:29.946Z,1.30
2018-12-21T05:38:00.612Z,1.30
2018-12-21T05:40:31.714Z,1.10
2018-12-21T05:43:02.417Z,1.10
2018-12-21T05:45:33.276Z,1.00
2018-12-21T05:48:04.156Z,1.67
2018-12-21T05:50:34.843Z,1.43
2018-12-21T05:53:05.711Z,1.30
2018-12-21T05:55:37.309Z,1.20
2018-12-21T05:58:08.407Z,1.90
2018-12-21T06:00:39.418Z,2.30
2018-12-21T06:03:10.128Z,1.40
2018-12-21T06:05:40.798Z,1.50
2018-12-21T06:08:11.855Z,1.23
2018-12-21T06:10:43.456Z,1.67
2018-12-21T06:13:14.247Z,1.17
2018-12-21T06:15:45.110Z,1.03
2018-12-21T06:18:15.928Z,1.43
2018-12-21T06:20:46.904Z,1.07
2018-12-21T06:23:17.692Z,1.23
2018-12-21T06:25:48.471Z,0.90
2018-12-21T06:28:19.327Z,0.80
2018-12-21T06:30:50.671Z,0.60
2018-12-21T06:33:22.779Z,0.70
2018-12-21T06:35:53.483Z,1.00
2018-12-21T06:38:24.238Z,0.60
2018-12-21T06:40:54.914Z,0.70
2018-12-21T06:43:25.622Z,0.60
2018-12-21T06:45:59.495Z,0.50
2018-12-21T06:48:30.359Z,0.50
2018-12-21T06:51:01.054Z,0.50
2018-12-21T06:53:31.815Z,0.60
2018-12-21T06:56:02.511Z,0.57
2018-12-21T06:58:33.391Z,0.60
2018-12-21T07:01:04.656Z,0.50
2018-12-21T07:03:36.139Z,0.40
2018-12-21T07:06:09.081Z,0.53
2018-12-21T07:08:39.916Z,0.60
2018-12-21T07:11:10.849Z,0.53
2018-12-21T07:13:41.736Z,0.47
2018-12-21T07:16:12.519Z,0.50
2018-12-21T07:18:43.373Z,0.60
2018-12-21T07:21:14.079Z,0.50
2018-12-21T07:23:45.066Z,0.60
2018-12-21T07:26:15.797Z,0.70
2018-12-21T07:28:46.460Z,0.70
2018-12-21T07:31:17.283Z,0.70
2018-12-21T07:33:47.967Z,0.50
2018-12-21T07:36:19.046Z,0.80
2018-12-21T07:38:49.876Z,0.90
2018-12-21T07:41:20.583Z,0.80
2018-12-21T07:43:51.292Z,0.60
2018-12-21T07:46:22.505Z,0.80
2018-12-21T07:48:55.318Z,0.60
2018-12-21T07:51:26.266Z,0.70
2018-12-21T07:53:57.163Z,0.80
2018-12-21T07:56:28.056Z,0.60
2018-12-21T07:58:59.562Z,0.77
2018-12-21T08:01:30.626Z,0.90
2018-12-21T08:04:01.923Z,2.33
2018-12-21T08:06:32.622Z,1.20
2018-12-21T08:09:03.915Z,1.03
2018-12-21T08:11:34.777Z,0.70
2018-12-21T08:14:06.610Z,0.90
2018-12-21T08:16:37.358Z,1.00
2018-12-21T08:19:08.322Z,0.83
2018-12-21T08:21:39.109Z,1.00
2018-12-21T08:24:09.770Z,0.80
2018-12-21T08:26:40.594Z,0.63
2018-12-21T08:29:11.346Z,0.70
2018-12-21T08:31:42.171Z,0.93
2018-12-21T08:34:13.065Z,0.73
2018-12-21T08:36:43.855Z,0.77
2018-12-21T08:39:14.596Z,0.70
2018-12-21T08:41:45.284Z,0.63
2018-12-21T08:44:16.066Z,0.93
2018-12-21T08:46:46.790Z,1.70
2018-12-21T08:49:17.539Z,0.60
2018-12-21T08:51:48.543Z,0.60
2018-12-21T08:54:19.345Z,0.60
2018-12-21T08:56:50.238Z,0.60
2018-12-21T08:59:21.749Z,0.70
2018-12-21T09:01:52.644Z,0.80
2018-12-21T09:04:32.005Z,0.50
2018-12-21T09:06:56.074Z,0.50
2018-12-21T09:09:27.095Z,0.50
2018-12-21T09:11:57.735Z,0.60
2018-12-21T09:14:28.815Z,0.60
2018-12-21T09:16:59.900Z,0.40
2018-12-21T09:19:30.728Z,0.37
2018-12-21T09:22:01.563Z,0.40
2018-12-21T09:24:32.410Z,0.60
2018-12-21T09:27:03.187Z,0.50
2018-12-21T09:29:33.979Z,0.50
2018-12-21T09:32:05.488Z,0.50
2018-12-21T09:34:36.884Z,1.03
2018-12-21T09:37:08.275Z,0.60
2018-12-21T09:39:39.145Z,0.40
2018-12-21T09:42:10.131Z,0.50
2018-12-21T09:44:41.468Z,0.50
2018-12-21T09:47:12.219Z,0.57
2018-12-21T09:49:43.476Z,1.63
2018-12-21T09:52:15.301Z,0.50
2018-12-21T09:54:45.955Z,0.50
2018-12-21T09:57:16.814Z,0.50
2018-12-21T09:59:47.633Z,0.47
2018-12-21T10:02:20.385Z,0.70
2018-12-21T10:04:51.293Z,0.57
2018-12-21T10:07:27.584Z,0.43
2018-12-21T10:09:54.915Z,0.50
2018-12-21T10:12:26.791Z,0.60
2018-12-21T10:14:57.576Z,0.50
2018-12-21T10:17:28.510Z,0.63
2018-12-21T10:20:01.041Z,0.50
2018-12-21T10:22:33.104Z,0.70
2018-12-21T10:25:04.628Z,0.50
2018-12-21T10:27:35.630Z,0.63
2018-12-21T10:30:10.331Z,0.63
2018-12-21T10:32:41.041Z,0.40
2018-12-21T10:35:12.279Z,0.60
2018-12-21T10:37:43.264Z,0.63
2018-12-21T10:40:14.209Z,0.60
2018-12-21T10:42:44.947Z,0.70
2018-12-21T10:45:15.630Z,0.70
2018-12-21T10:47:46.860Z,0.57
2018-12-21T10:50:17.857Z,0.53
2018-12-21T10:52:48.755Z,0.70
2018-12-21T10:55:19.647Z,0.73
2018-12-21T10:57:50.455Z,0.60
2018-12-21T11:00:21.499Z,0.80
2018-12-21T11:02:52.411Z,0.90
2018-12-21T11:05:23.165Z,0.80
2018-12-21T11:07:54.008Z,0.90
2018-12-21T11:10:24.934Z,0.60
2018-12-21T11:12:55.809Z,0.90
2018-12-21T11:15:26.929Z,0.73
2018-12-21T11:17:57.708Z,0.83
2018-12-21T11:20:28.798Z,0.50
2018-12-21T11:23:00.868Z,0.80
2018-12-21T11:25:31.873Z,0.77
2018-12-21T11:28:02.996Z,0.47
2018-12-21T11:30:34.216Z,0.50
2018-12-21T11:33:05.235Z,0.50
2018-12-21T11:35:36.178Z,0.47
2018-12-21T11:38:07.020Z,0.40
2018-12-21T11:40:37.939Z,0.43
2018-12-21T11:43:08.856Z,0.60
2018-12-21T11:45:39.604Z,1.00
2018-12-21T11:48:10.454Z,0.50
2018-12-21T11:50:42.509Z,0.60
2018-12-21T11:53:13.991Z,0.57
2018-12-21T11:55:44.830Z,0.60
2018-12-21T11:58:16.307Z,0.63
2018-12-21T12:00:47.361Z,0.40
2018-12-21T12:03:18.639Z,0.50
2018-12-21T12:05:49.483Z,0.60
2018-12-21T12:08:20.318Z,0.40
2018-12-21T12:10:51.755Z,0.60
2018-12-21T12:13:22.753Z,0.50
2018-12-21T12:15:53.855Z,0.67
2018-12-21T12:18:24.727Z,0.80
2018-12-21T12:20:55.627Z,1.20
2018-12-21T12:23:27.703Z,1.30
2018-12-21T12:25:58.863Z,1.00
2018-12-21T12:28:29.740Z,0.67
2018-12-21T12:31:00.475Z,0.60
2018-12-21T12:33:31.424Z,0.57
2018-12-21T12:36:02.257Z,0.50
2018-12-21T12:38:33.076Z,0.53
2018-12-21T12:41:06.765Z,0.60
2018-12-21T12:43:39.753Z,0.60
2018-12-21T12:46:11.399Z,0.63
2018-12-21T12:48:42.714Z,0.83
2018-12-21T12:51:13.800Z,1.07
2018-12-21T12:53:45.667Z,1.10
2018-12-21T12:56:17.124Z,0.90
2018-12-21T12:58:47.983Z,0.73
2018-12-21T13:01:19.163Z,0.80
2018-12-21T13:03:51.364Z,0.60
2018-12-21T13:06:22.107Z,0.60
2018-12-21T13:08:53.176Z,0.60
2018-12-21T13:11:24.059Z,0.80
2018-12-21T13:13:56.176Z,0.87
2018-12-21T13:16:27.184Z,1.40
2018-12-21T13:18:57.967Z,1.73
2018-12-21T13:21:28.804Z,1.70
2018-12-21T13:24:00.119Z,1.80
2018-12-21T13:26:30.976Z,1.57
2018-12-21T13:29:03.006Z,1.50
2018-12-21T13:31:33.947Z,1.10
2018-12-21T13:34:06.052Z,1.00
2018-12-21T13:36:36.800Z,0.70
2018-12-21T13:39:09.686Z,0.77
2018-12-21T13:41:40.492Z,0.70
2018-12-21T13:44:11.253Z,0.50
2018-12-21T13:46:42.095Z,0.60
2018-12-21T13:49:13.619Z,0.50
2018-12-21T13:51:44.578Z,0.73
2018-12-21T13:54:15.864Z,0.77
2018-12-21T13:56:46.838Z,1.20
2018-12-21T13:59:17.575Z,1.30
2018-12-21T14:01:48.671Z,1.00
2018-12-21T14:04:19.456Z,1.13
2018-12-21T14:06:50.290Z,1.50
2018-12-21T14:09:21.020Z,1.27
2018-12-21T14:11:51.920Z,1.00
2018-12-21T14:14:22.689Z,1.10
2018-12-21T14:16:53.547Z,1.33
2018-12-21T14:19:24.485Z,1.57
2018-12-21T14:21:55.917Z,1.47
2018-12-21T14:24:26.878Z,1.17
2018-12-21T14:26:57.818Z,1.47
2018-12-21T14:29:29.043Z,1.40
2018-12-21T14:31:59.724Z,1.30
2018-12-21T14:34:30.874Z,1.83
2018-12-21T14:37:01.827Z,1.53
2018-12-21T14:39:32.817Z,1.80
2018-12-21T14:42:06.165Z,1.90
2018-12-21T14:44:37.257Z,1.80
2018-12-21T14:47:08.434Z,2.03
2018-12-21T14:49:39.213Z,2.40
2018-12-21T14:52:10.168Z,2.10
2018-12-21T14:54:41.421Z,1.80
2018-12-21T14:57:12.529Z,2.03
2018-12-21T14:59:43.918Z,2.43
2018-12-21T15:02:14.807Z,2.17
2018-12-21T15:04:45.838Z,2.60
2018-12-21T15:07:16.913Z,1.90
2018-12-21T15:09:48.019Z,2.20
2018-12-21T15:12:19.046Z,2.20
2018-12-21T15:14:49.746Z,2.53
2018-12-21T15:17:20.609Z,2.07
2018-12-21T15:19:51.355Z,2.70
2018-12-21T15:22:22.931Z,2.30
2018-12-21T15:24:53.618Z,2.37
2018-12-21T15:27:24.961Z,2.50
2018-12-21T15:29:56.079Z,2.87
2018-12-21T15:32:27.215Z,3.73
2018-12-21T15:34:58.048Z,3.33
2018-12-21T15:37:28.851Z,3.23
2018-12-21T15:39:59.632Z,3.33
2018-12-21T15:42:31.243Z,3.07
2018-12-21T15:45:02.130Z,3.70
2018-12-21T15:47:32.997Z,3.93
2018-12-21T15:50:04.527Z,3.40
2018-12-21T15:52:35.631Z,3.63
2018-12-21T15:55:06.718Z,3.73
2018-12-21T15:57:37.974Z,4.30
2018-12-21T16:00:13.425Z,3.60
2018-12-21T16:02:48.573Z,2.97
2018-12-21T16:05:19.472Z,3.37
2018-12-21T16:07:50.263Z,3.60
2018-12-21T16:10:21.100Z,3.43
2018-12-21T16:12:51.978Z,3.83
2018-12-21T16:15:22.920Z,3.87
2018-12-21T16:17:53.716Z,3.77
2018-12-21T16:20:25.701Z,3.57
2018-12-21T16:22:56.840Z,3.10
2018-12-21T16:25:27.581Z,4.03
2018-12-21T16:27:58.369Z,2.77
2018-12-21T16:30:29.110Z,3.50
2018-12-21T16:32:59.904Z,3.67
2018-12-21T16:35:30.855Z,3.67
2018-12-21T16:38:02.407Z,3.73
2018-12-21T16:40:33.279Z,3.93
2018-12-21T16:43:04.694Z,3.97
2018-12-21T16:45:35.723Z,4.53
2018-12-21T16:48:06.722Z,3.63
2018-12-21T16:50:37.750Z,4.90
2018-12-21T16:53:09.162Z,4.47
2018-12-21T16:55:39.996Z,4.17
2018-12-21T16:58:10.746Z,3.80
2018-12-21T17:00:41.687Z,3.90
2018-12-21T17:03:15.675Z,4.07
2018-12-21T17:05:45.668Z,4.40
2018-12-21T17:08:16.566Z,4.67
2018-12-21T17:10:48.385Z,4.00
2018-12-21T17:13:19.891Z,3.77
2018-12-21T17:15:50.719Z,5.40
2018-12-21T17:18:24.193Z,4.30
2018-12-21T17:20:55.069Z,3.27
2018-12-21T17:23:26.299Z,3.50
2018-12-21T17:25:57.471Z,3.37
2018-12-21T17:28:28.380Z,3.60
2018-12-21T17:30:59.464Z,3.53
2018-12-21T17:33:30.323Z,4.10
2018-12-21T17:36:01.854Z,3.67
2018-12-21T17:38:32.724Z,4.03
2018-12-21T17:41:03.715Z,4.57
2018-12-21T17:43:34.617Z,3.83
2018-12-21T17:46:06.140Z,5.43
2018-12-21T17:48:37.119Z,4.47
2018-12-21T17:51:08.005Z,4.20
2018-12-21T17:53:38.825Z,4.03
2018-12-21T17:56:09.743Z,4.57
2018-12-21T17:58:40.721Z,4.30
2018-12-21T18:01:11.791Z,4.17
2018-12-21T18:03:52.782Z,2.97
2018-12-21T18:06:23.721Z,3.60
2018-12-21T18:08:54.547Z,4.30
2018-12-21T18:11:25.436Z,4.23
2018-12-21T18:13:56.393Z,3.77
2018-12-21T18:16:27.165Z,4.90
2018-12-21T18:18:58.104Z,4.10
2018-12-21T18:21:32.375Z,4.63
2018-12-21T18:24:03.395Z,4.10
2018-12-21T18:26:38.564Z,4.80
2018-12-21T18:29:07.410Z,3.60
2018-12-21T18:32:45.554Z,3.93
2018-12-21T18:35:19.778Z,3.37
2018-12-21T18:38:00.933Z,3.80
2018-12-21T18:40:33.412Z,3.70
2018-12-21T18:43:04.359Z,4.10
2018-12-21T18:45:35.338Z,4.30
2018-12-21T18:48:07.110Z,4.17
2018-12-21T18:50:37.923Z,3.80
2018-12-21T18:53:08.912Z,3.80
2018-12-21T18:55:39.624Z,3.43
2018-12-21T18:58:10.565Z,3.57
2018-12-21T19:00:41.530Z,4.10
2018-12-21T19:03:12.824Z,4.70
2018-12-21T19:05:44.083Z,4.00
2018-12-21T19:08:16.188Z,3.37
2018-12-21T19:10:46.978Z,4.40
2018-12-21T19:13:17.903Z,3.80
2018-12-21T19:15:48.837Z,4.27
2018-12-21T19:18:19.620Z,3.53
2018-12-21T19:20:50.524Z,4.30
2018-12-21T19:23:21.377Z,4.53
2018-12-21T19:25:52.120Z,3.67
2018-12-21T19:28:24.436Z,3.70
2018-12-21T19:30:55.292Z,4.60
2018-12-21T19:33:26.259Z,4.07
2018-12-21T19:35:57.124Z,3.57
2018-12-21T19:38:28.132Z,3.70
2018-12-21T19:40:58.954Z,4.03
2018-12-21T19:43:31.042Z,4.17
2018-12-21T19:46:01.881Z,4.70
2018-12-21T19:48:33.769Z,4.03
2018-12-21T19:51:05.438Z,4.07
2018-12-21T19:53:37.427Z,3.87
2018-12-21T19:57:30.896Z,4.20
2018-12-21T20:00:01.716Z,3.47
2018-12-21T20:02:32.568Z,3.13
2018-12-21T20:05:03.905Z,4.00
2018-12-21T20:07:34.808Z,3.93
2018-12-21T20:10:08.459Z,3.93
2018-12-21T20:12:39.488Z,3.80
2018-12-21T20:15:11.004Z,4.80
2018-12-21T20:17:42.073Z,4.33
2018-12-21T20:20:13.821Z,3.97
2018-12-21T20:22:44.533Z,3.70
2018-12-21T20:25:15.687Z,4.50
2018-12-21T20:27:47.198Z,3.83
2018-12-21T20:30:20.371Z,3.70
2018-12-21T20:32:51.283Z,3.57
2018-12-21T20:35:22.563Z,4.27
2018-12-21T20:37:53.429Z,4.20
2018-12-21T20:40:24.179Z,4.07
2018-12-21T20:42:55.040Z,3.60
2018-12-21T20:45:25.915Z,3.53
2018-12-21T20:47:56.732Z,4.10
2018-12-21T20:50:27.466Z,4.13
2018-12-21T20:52:58.462Z,5.07
2018-12-21T20:55:29.409Z,4.13
2018-12-21T20:58:12.344Z,4.10
2018-12-21T21:00:43.241Z,3.87
2018-12-21T21:03:14.331Z,4.63
2018-12-21T21:05:45.344Z,4.73
2018-12-21T21:08:16.231Z,4.07
2018-12-21T21:10:47.015Z,3.97
2018-12-21T21:13:19.315Z,3.93
2018-12-21T21:15:50.852Z,3.93
2018-12-21T21:18:22.531Z,3.60
2018-12-21T21:20:53.711Z,5.23
2018-12-21T21:23:24.547Z,4.43
2018-12-21T21:25:55.436Z,3.70
2018-12-21T21:28:27.449Z,4.37
2018-12-21T21:30:58.381Z,5.17
2018-12-21T21:33:29.280Z,4.33
2018-12-21T21:36:00.114Z,5.27
2018-12-21T21:38:31.103Z,5.00
2018-12-21T21:41:01.993Z,4.60
2018-12-21T21:43:32.800Z,5.53
2018-12-21T21:46:03.867Z,4.60
2018-12-21T21:48:34.920Z,5.10
2018-12-21T21:51:05.796Z,4.63
2018-12-21T21:53:36.593Z,4.97
2018-12-21T21:56:07.680Z,5.03
2018-12-21T21:58:38.745Z,4.73
2018-12-21T22:01:09.667Z,4.43
2018-12-21T22:03:40.748Z,4.63
2018-12-21T22:06:11.549Z,4.60
2018-12-21T22:08:42.384Z,4.77
2018-12-21T22:11:13.227Z,5.03
2018-12-21T22:13:43.954Z,5.13
2018-12-21T22:16:14.706Z,4.43
2018-12-21T22:18:45.612Z,4.30
2018-12-21T22:21:16.890Z,5.00
2018-12-21T22:23:47.947Z,4.57
2018-12-21T22:26:18.910Z,3.73
2018-12-21T22:28:49.817Z,4.33
2018-12-21T22:31:20.693Z,4.47
2018-12-21T22:33:51.455Z,4.90
2018-12-21T22:36:22.200Z,3.97
2018-12-21T22:38:53.222Z,4.83
2018-12-21T22:41:24.019Z,4.50
2018-12-21T22:43:55.258Z,4.13
2018-12-21T22:46:26.175Z,5.07
2018-12-21T22:48:57.197Z,3.73
2018-12-21T22:51:28.185Z,5.13
2018-12-21T22:53:59.226Z,4.50
2018-12-21T22:56:30.046Z,4.73
2018-12-21T22:59:00.875Z,4.17
2018-12-21T23:01:32.078Z,4.83
2018-12-21T23:04:03.173Z,5.10
2018-12-21T23:06:34.507Z,4.70
2018-12-21T23:09:06.968Z,4.20
2018-12-21T23:11:38.475Z,5.13
2018-12-21T23:14:09.294Z,4.70
2018-12-21T23:16:40.254Z,5.30
2018-12-21T23:19:11.360Z,4.47
2018-12-21T23:21:42.464Z,5.30
2018-12-21T23:24:13.444Z,4.87
2018-12-21T23:26:44.252Z,5.03
2018-12-21T23:29:15.026Z,5.90
2018-12-21T23:31:48.204Z,5.23
2018-12-21T23:34:19.010Z,4.53
2018-12-21T23:36:49.911Z,5.20
2018-12-21T23:39:21.064Z,4.33
2018-12-21T23:41:51.898Z,5.57
2018-12-21T23:44:22.744Z,4.83
2018-12-21T23:46:53.675Z,4.90
2018-12-21T23:49:25.732Z,4.50
2018-12-21T23:51:57.287Z,5.07
2018-12-21T23:54:28.107Z,5.33
2018-12-21T23:56:59.965Z,4.90
2018-12-21T23:59:30.741Z,4.97
